createdAt,value
2022-10-05T00:00:53.733Z,9.07
2022-10-05T00:03:23.024Z,7.72
2022-10-05T00:05:50.529Z,7.03
2022-10-05T00:08:24.050Z,6.88
2022-10-05T00:13:28.297Z,6.10
2022-10-05T00:16:05.268Z,5.93
2022-10-05T00:18:33.104Z,7.32
2022-10-05T00:21:00.346Z,6.00
2022-10-05T00:23:31.221Z,6.68
2022-10-05T00:26:11.682Z,5.75
2022-10-05T00:28:40.527Z,8.43
2022-10-05T00:31:25.885Z,10.43
2022-10-05T00:33:53.253Z,7.68
2022-10-05T00:36:20.212Z,7.55
2022-10-05T00:38:47.476Z,8.50
2022-10-05T00:42:09.951Z,7.40
2022-10-05T00:44:43.530Z,7.78
2022-10-05T00:50:35.939Z,6.78
2022-10-05T00:53:24.396Z,6.32
2022-10-05T00:56:12.524Z,6.40
2022-10-05T00:59:07.434Z,6.28
2022-10-05T01:01:43.613Z,6.80
2022-10-05T01:04:29.530Z,6.07
2022-10-05T01:07:20.935Z,6.68
2022-10-05T01:10:12.336Z,6.78
2022-10-05T01:12:45.451Z,6.45
2022-10-05T01:15:42.266Z,5.40
2022-10-05T01:18:16.878Z,6.28
2022-10-05T01:20:52.988Z,5.88
2022-10-05T01:23:44.606Z,6.70
2022-10-05T01:26:14.591Z,6.60
2022-10-05T01:28:56.425Z,6.82
2022-10-05T01:31:58.589Z,6.60
2022-10-05T01:34:25.784Z,7.22
2022-10-05T01:37:24.252Z,6.15
2022-10-05T01:40:28.283Z,6.65
2022-10-05T01:43:21.568Z,5.93
2022-10-05T01:46:06.781Z,5.83
2022-10-05T01:48:37.860Z,5.28
2022-10-05T01:51:13.241Z,6.30
2022-10-05T01:54:34.280Z,6.13
2022-10-05T01:57:16.517Z,5.95
2022-10-05T01:59:58.479Z,6.43
2022-10-05T02:02:29.207Z,5.35
2022-10-05T02:05:11.598Z,5.68
2022-10-05T02:08:00.717Z,6.05
2022-10-05T02:10:38.631Z,4.80
2022-10-05T02:13:28.247Z,5.82
2022-10-05T02:16:01.018Z,5.35
2022-10-05T02:18:33.003Z,4.93
2022-10-05T02:21:02.060Z,6.28
2022-10-05T02:23:33.825Z,5.30
2022-10-05T02:26:02.177Z,5.38
2022-10-05T02:28:41.803Z,5.03
2022-10-05T02:31:22.756Z,5.13
2022-10-05T02:33:49.882Z,5.90
2022-10-05T02:36:37.175Z,6.40
2022-10-05T02:39:13.027Z,5.47
2022-10-05T02:42:09.141Z,4.95
2022-10-05T02:44:54.710Z,5.38
2022-10-05T02:47:47.859Z,6.13
2022-10-05T02:50:27.306Z,6.43
2022-10-05T02:53:29.901Z,6.55
2022-10-05T02:55:59.708Z,5.35
2022-10-05T02:58:31.139Z,8.20
2022-10-05T03:01:21.253Z,7.03
2022-10-05T03:03:55.953Z,7.03
2022-10-05T03:06:35.399Z,6.97
2022-10-05T03:09:05.962Z,6.80
2022-10-05T03:11:39.218Z,5.40
2022-10-05T03:14:12.665Z,6.13
2022-10-05T03:16:58.265Z,5.75
2022-10-05T03:19:50.152Z,6.97
2022-10-05T03:22:49.838Z,8.15
2022-10-05T03:25:22.753Z,7.30
2022-10-05T03:28:00.521Z,6.32
2022-10-05T03:30:33.051Z,7.57
2022-10-05T03:33:08.711Z,8.05
2022-10-05T03:36:13.579Z,7.20
2022-10-05T03:38:54.167Z,7.68
2022-10-05T03:41:36.942Z,6.15
2022-10-05T03:44:22.687Z,6.70
2022-10-05T03:47:03.270Z,6.00
2022-10-05T03:49:48.793Z,4.57
2022-10-05T03:52:22.349Z,5.65
2022-10-05T03:57:23.555Z,6.07
2022-10-05T04:00:04.707Z,4.97
2022-10-05T04:02:33.699Z,4.60
2022-10-05T04:05:31.134Z,4.65
2022-10-05T04:07:58.083Z,5.30
2022-10-05T04:10:31.687Z,4.68
2022-10-05T04:15:41.906Z,4.63
2022-10-05T04:18:34.432Z,5.72
2022-10-05T04:21:10.903Z,5.00
2022-10-05T04:24:01.146Z,4.63
2022-10-05T04:26:50.072Z,4.30
2022-10-05T04:29:33.048Z,3.95
2022-10-05T04:32:28.135Z,4.13
2022-10-05T04:35:24.100Z,4.10
2022-10-05T04:38:09.755Z,4.13
2022-10-05T04:40:41.964Z,4.63
2022-10-05T04:43:37.005Z,4.00
2022-10-05T04:46:06.897Z,7.40
2022-10-05T04:49:19.164Z,9.48
2022-10-05T04:52:12.313Z,8.77
2022-10-05T04:54:57.198Z,10.10
2022-10-05T04:57:57.051Z,8.63
2022-10-05T05:00:26.170Z,9.90
2022-10-05T05:03:04.178Z,8.10
2022-10-05T05:06:18.007Z,9.80
2022-10-05T05:09:10.430Z,8.90
2022-10-05T05:11:55.551Z,10.55
2022-10-05T05:15:07.438Z,11.00
2022-10-05T05:17:55.091Z,10.05
2022-10-05T05:20:45.974Z,8.57
2022-10-05T05:23:22.647Z,9.98
2022-10-05T05:26:07.201Z,5.97
2022-10-05T05:29:02.888Z,5.40
2022-10-05T05:31:35.906Z,4.07
2022-10-05T05:34:18.314Z,5.00
2022-10-05T05:36:57.854Z,4.82
2022-10-05T05:39:29.820Z,4.50
2022-10-05T05:42:01.472Z,4.38
2022-10-05T05:44:38.734Z,4.35
2022-10-05T05:47:28.639Z,4.13
2022-10-05T05:50:07.393Z,4.25
2022-10-05T05:52:51.958Z,4.78
2022-10-05T05:55:24.352Z,4.68
2022-10-05T05:58:17.598Z,4.35
2022-10-05T06:01:32.861Z,4.18
2022-10-05T06:04:09.556Z,4.05
2022-10-05T06:06:40.539Z,4.35
2022-10-05T06:09:35.486Z,3.90
2022-10-05T06:12:18.929Z,4.38
2022-10-05T06:14:53.315Z,4.18
2022-10-05T06:17:27.344Z,3.80
2022-10-05T06:20:04.920Z,3.80
2022-10-05T06:22:41.141Z,4.20
2022-10-05T06:25:15.213Z,3.00
2022-10-05T06:28:16.397Z,3.63
2022-10-05T06:30:58.817Z,4.18
2022-10-05T06:33:49.532Z,4.93
2022-10-05T06:36:38.937Z,4.28
2022-10-05T06:39:18.015Z,5.07
2022-10-05T06:42:01.940Z,4.63
2022-10-05T06:44:49.560Z,4.80
2022-10-05T06:47:52.099Z,4.75
2022-10-05T06:50:48.165Z,5.07
2022-10-05T06:53:33.181Z,4.60
2022-10-05T06:56:27.593Z,4.22
2022-10-05T06:59:20.633Z,5.00
2022-10-05T07:01:55.266Z,5.22
2022-10-05T07:04:37.187Z,4.63
2022-10-05T07:07:16.840Z,5.53
2022-10-05T07:10:24.354Z,5.05
2022-10-05T07:12:54.398Z,6.30
2022-10-05T07:15:46.651Z,5.53
2022-10-05T07:18:50.885Z,5.60
2022-10-05T07:21:55.289Z,4.72
2022-10-05T07:24:32.831Z,5.85
2022-10-05T07:27:23.011Z,5.90
2022-10-05T07:30:10.507Z,5.50
2022-10-05T07:32:45.547Z,5.85
2022-10-05T07:36:03.482Z,5.38
2022-10-05T07:38:37.736Z,5.40
2022-10-05T07:41:31.220Z,5.95
2022-10-05T07:44:16.374Z,5.53
2022-10-05T07:46:47.347Z,6.32
2022-10-05T07:49:25.875Z,5.90
2022-10-05T07:51:57.503Z,5.78
2022-10-05T07:54:33.684Z,6.45
2022-10-05T07:57:27.383Z,6.80
2022-10-05T08:00:06.514Z,5.82
2022-10-05T08:02:58.541Z,6.28
2022-10-05T08:05:58.959Z,6.00
2022-10-05T08:08:25.940Z,6.95
2022-10-05T08:11:13.964Z,5.60
2022-10-05T08:13:55.520Z,6.07
2022-10-05T08:16:27.349Z,6.30
2022-10-05T08:19:03.376Z,5.53
2022-10-05T08:22:00.706Z,6.65
2022-10-05T08:24:30.649Z,5.72
2022-10-05T08:27:07.077Z,5.60
2022-10-05T08:30:04.023Z,5.68
2022-10-05T08:33:01.969Z,6.03
2022-10-05T08:35:39.550Z,6.03
2022-10-05T08:38:29.149Z,5.32
2022-10-05T08:41:17.110Z,5.25
2022-10-05T08:43:55.297Z,6.13
2022-10-05T08:46:34.443Z,5.90
2022-10-05T08:49:23.225Z,5.93
2022-10-05T08:52:29.323Z,5.10
2022-10-05T08:55:23.259Z,5.95
2022-10-05T08:58:03.682Z,5.95
2022-10-05T09:01:04.955Z,6.20
2022-10-05T09:03:43.876Z,6.70
2022-10-05T09:06:26.882Z,5.50
2022-10-05T09:09:04.911Z,5.70
2022-10-05T09:11:40.901Z,5.75
2022-10-05T09:14:43.184Z,6.45
2022-10-05T09:17:39.330Z,6.13
2022-10-05T09:20:27.599Z,5.82
2022-10-05T09:23:00.273Z,5.80
2022-10-05T09:25:55.138Z,5.77
2022-10-05T09:28:34.716Z,6.28
2022-10-05T09:31:25.578Z,7.30
2022-10-05T09:34:37.285Z,7.00
2022-10-05T09:37:22.778Z,12.60
2022-10-05T09:40:04.610Z,13.88
2022-10-05T09:43:02.247Z,13.50
2022-10-05T09:45:53.994Z,11.73
2022-10-05T09:49:02.607Z,11.77
2022-10-05T09:51:53.718Z,11.00
2022-10-05T09:55:03.152Z,10.93
2022-10-05T09:57:50.861Z,9.70
2022-10-05T10:00:23.458Z,8.75
2022-10-05T10:03:16.522Z,13.35
2022-10-05T10:06:11.501Z,13.37
2022-10-05T10:08:38.475Z,14.63
2022-10-05T10:11:17.559Z,11.93
2022-10-05T10:14:10.872Z,14.13
2022-10-05T10:17:02.121Z,14.65
2022-10-05T10:19:29.215Z,14.98
2022-10-05T10:22:12.370Z,15.38
2022-10-05T10:25:02.078Z,15.50
2022-10-05T10:28:07.375Z,15.43
2022-10-05T10:30:55.014Z,15.65
2022-10-05T10:34:04.114Z,15.15
2022-10-05T10:37:11.346Z,14.40
2022-10-05T10:40:00.254Z,14.45
2022-10-05T10:42:38.262Z,16.73
2022-10-05T10:45:20.092Z,16.83
2022-10-05T10:47:55.766Z,17.02
2022-10-05T10:50:32.949Z,16.25
2022-10-05T10:53:47.245Z,18.02
2022-10-05T10:56:49.492Z,16.65
2022-10-05T10:59:35.556Z,15.95
2022-10-05T11:02:02.570Z,18.75
2022-10-05T11:04:48.366Z,16.75
2022-10-05T11:07:44.336Z,16.80
2022-10-05T11:10:32.568Z,16.33
2022-10-05T11:13:02.151Z,16.67
2022-10-05T11:15:38.191Z,18.27
2022-10-05T11:18:26.679Z,18.73
2022-10-05T11:21:02.557Z,17.58
2022-10-05T11:23:44.203Z,19.30
2022-10-05T11:26:53.463Z,18.13
2022-10-05T11:29:32.699Z,17.33
2022-10-05T11:32:21.365Z,17.50
2022-10-05T11:35:03.581Z,16.90
2022-10-05T11:37:36.593Z,16.42
2022-10-05T11:40:21.987Z,16.73
2022-10-05T11:43:17.141Z,17.27
2022-10-05T11:46:09.011Z,15.68
2022-10-05T11:49:00.780Z,16.40
2022-10-05T11:51:34.625Z,16.50
2022-10-05T11:55:16.190Z,16.55
2022-10-05T11:57:51.095Z,17.25
2022-10-05T12:00:19.822Z,17.50
2022-10-05T12:03:24.304Z,15.70
2022-10-05T12:06:25.880Z,16.23
2022-10-05T12:09:17.703Z,15.50
2022-10-05T12:11:57.910Z,16.45
2022-10-05T12:14:44.991Z,16.63
2022-10-05T12:17:40.999Z,17.05
2022-10-05T12:20:21.299Z,16.25
2022-10-05T12:22:55.859Z,15.63
2022-10-05T12:25:50.276Z,15.95
2022-10-05T12:28:23.217Z,17.70
2022-10-05T12:31:18.627Z,16.20
2022-10-05T12:34:12.193Z,17.02
2022-10-05T12:37:10.200Z,16.00
2022-10-05T12:39:51.073Z,14.00
2022-10-05T12:42:40.808Z,15.57
2022-10-05T12:45:24.396Z,16.30
2022-10-05T12:48:14.623Z,15.32
2022-10-05T12:50:43.555Z,15.20
2022-10-05T12:53:41.374Z,15.23
2022-10-05T12:56:08.421Z,14.30
2022-10-05T12:58:54.040Z,13.98
2022-10-05T13:01:27.046Z,15.27
2022-10-05T13:03:57.009Z,15.27
2022-10-05T13:06:55.763Z,15.15
2022-10-05T13:09:41.577Z,16.02
2022-10-05T13:12:21.096Z,13.82
2022-10-05T13:15:26.794Z,15.63
2022-10-05T13:17:54.069Z,14.48
2022-10-05T13:20:39.445Z,14.73
2022-10-05T13:23:35.119Z,14.52
2022-10-05T13:26:04.294Z,16.00
2022-10-05T13:28:34.356Z,14.07
2022-10-05T13:31:24.037Z,15.18
2022-10-05T13:33:51.043Z,14.38
2022-10-05T13:36:36.360Z,15.43
2022-10-05T13:39:27.712Z,14.15
2022-10-05T13:42:04.117Z,14.80
2022-10-05T13:44:48.666Z,15.05
2022-10-05T13:47:22.441Z,15.35
2022-10-05T13:50:18.516Z,15.68
2022-10-05T13:52:57.047Z,15.30
2022-10-05T13:55:45.405Z,14.23
2022-10-05T13:58:31.521Z,15.00
2022-10-05T14:01:08.150Z,14.63
2022-10-05T14:03:37.416Z,14.10
2022-10-05T14:06:27.859Z,14.80
2022-10-05T14:08:55.371Z,13.57
2022-10-05T14:11:31.662Z,15.82
2022-10-05T14:14:15.172Z,14.48
2022-10-05T14:16:52.279Z,15.32
2022-10-05T14:19:23.929Z,14.82
2022-10-05T14:22:02.703Z,15.82
2022-10-05T14:24:44.105Z,15.88
2022-10-05T14:27:23.707Z,13.65
2022-10-05T14:29:58.314Z,14.65
2022-10-05T14:32:27.609Z,15.80
2022-10-05T14:35:16.156Z,13.98
2022-10-05T14:38:16.459Z,14.65
2022-10-05T14:40:43.568Z,14.93
2022-10-05T14:43:16.362Z,14.30
2022-10-05T14:45:55.474Z,14.40
2022-10-05T14:48:23.176Z,15.93
2022-10-05T14:50:59.625Z,14.27
2022-10-05T14:53:39.221Z,15.90
2022-10-05T14:56:25.002Z,15.18
2022-10-05T14:59:14.406Z,13.95
2022-10-05T15:01:52.198Z,14.18
2022-10-05T15:04:43.192Z,13.90
2022-10-05T15:07:24.793Z,15.48
2022-10-05T15:10:06.517Z,14.80
2022-10-05T15:12:37.847Z,13.70
2022-10-05T15:15:46.322Z,15.35
2022-10-05T15:18:29.608Z,15.23
2022-10-05T15:21:26.679Z,13.88
2022-10-05T15:24:01.115Z,15.32
2022-10-05T15:26:49.524Z,14.20
2022-10-05T15:29:55.830Z,15.20
2022-10-05T15:32:42.455Z,16.35
2022-10-05T15:35:21.629Z,15.95
2022-10-05T15:38:10.684Z,14.45
2022-10-05T15:40:42.874Z,14.40
2022-10-05T15:43:18.316Z,15.05
2022-10-05T15:46:23.619Z,14.77
2022-10-05T15:49:16.631Z,15.20
2022-10-05T15:51:53.386Z,15.03
2022-10-05T15:54:38.916Z,15.85
2022-10-05T15:57:17.388Z,15.55
2022-10-05T16:00:02.479Z,15.95
2022-10-05T16:03:06.246Z,15.13
2022-10-05T16:06:08.889Z,13.35
2022-10-05T16:08:50.850Z,14.68
2022-10-05T16:11:39.430Z,14.82
2022-10-05T16:14:40.388Z,14.32
2022-10-05T16:17:48.966Z,15.15
2022-10-05T16:20:41.360Z,14.75
2022-10-05T16:23:33.511Z,13.32
2022-10-05T16:26:21.938Z,14.43
2022-10-05T16:29:19.534Z,14.35
2022-10-05T16:31:55.583Z,14.80
2022-10-05T16:34:34.874Z,14.07
2022-10-05T16:37:13.084Z,14.02
2022-10-05T16:39:50.722Z,15.20
2022-10-05T16:43:14.528Z,14.63
2022-10-05T16:45:56.652Z,15.55
2022-10-05T16:48:31.592Z,13.70
2022-10-05T16:51:20.135Z,14.30
2022-10-05T16:54:07.288Z,14.65
2022-10-05T16:56:49.442Z,13.15
2022-10-05T16:59:37.975Z,14.68
2022-10-05T17:02:30.381Z,14.40
2022-10-05T17:05:20.320Z,15.75
2022-10-05T17:07:53.530Z,14.82
2022-10-05T17:10:40.557Z,14.07
2022-10-05T17:13:29.216Z,14.77
2022-10-05T17:16:19.426Z,14.65
2022-10-05T17:19:15.500Z,15.23
2022-10-05T17:21:49.930Z,14.90
2022-10-05T17:24:20.110Z,14.43
2022-10-05T17:27:03.166Z,15.48
2022-10-05T17:29:48.313Z,14.70
2022-10-05T17:32:16.022Z,14.85
2022-10-05T17:35:01.008Z,14.88
2022-10-05T17:37:28.233Z,14.02
2022-10-05T17:39:57.223Z,15.38
2022-10-05T17:42:45.275Z,15.32
2022-10-05T17:45:15.009Z,14.50
2022-10-05T17:47:59.132Z,14.13
2022-10-05T17:51:04.381Z,14.48
2022-10-05T17:53:52.501Z,14.98
2022-10-05T17:56:22.007Z,13.52
2022-10-05T17:58:57.634Z,14.75
2022-10-05T18:01:31.736Z,14.75
2022-10-05T18:04:13.781Z,12.68
2022-10-05T18:07:02.037Z,13.00
2022-10-05T18:09:33.737Z,12.93
2022-10-05T18:12:12.804Z,13.30
2022-10-05T18:15:07.423Z,13.13
2022-10-05T18:17:51.682Z,15.27
2022-10-05T18:20:24.444Z,14.10
2022-10-05T18:23:15.007Z,13.85
2022-10-05T18:25:48.883Z,14.02
2022-10-05T18:28:43.473Z,12.90
2022-10-05T18:31:16.614Z,14.07
2022-10-05T18:33:53.056Z,14.98
2022-10-05T18:36:24.416Z,14.43
2022-10-05T18:39:14.332Z,15.02
2022-10-05T18:41:55.436Z,13.70
2022-10-05T18:44:40.949Z,14.40
2022-10-05T18:47:38.908Z,14.02
2022-10-05T18:50:18.070Z,13.40
2022-10-05T18:52:54.886Z,14.80
2022-10-05T18:55:33.809Z,14.05
2022-10-05T18:58:07.412Z,13.45
2022-10-05T19:03:51.741Z,15.25
2022-10-05T19:06:26.780Z,13.48
2022-10-05T19:09:19.147Z,14.73
2022-10-05T19:12:24.304Z,13.48
2022-10-05T19:15:11.264Z,14.30
2022-10-05T19:18:11.646Z,13.07
2022-10-05T19:21:13.353Z,14.00
2022-10-05T19:24:12.597Z,12.52
2022-10-05T19:27:04.292Z,13.98
2022-10-05T19:29:45.515Z,13.80
2022-10-05T19:32:26.583Z,12.98
2022-10-05T19:35:09.348Z,13.88
2022-10-05T19:38:21.551Z,14.95
2022-10-05T19:41:03.600Z,12.77
2022-10-05T19:44:13.731Z,13.38
2022-10-05T19:46:56.175Z,13.18
2022-10-05T19:49:47.802Z,13.48
2022-10-05T19:52:28.676Z,12.73
2022-10-05T19:55:24.307Z,12.38
2022-10-05T19:57:56.433Z,11.00
2022-10-05T20:00:26.519Z,14.50
2022-10-05T20:03:12.407Z,13.32
2022-10-05T20:05:40.708Z,13.13
2022-10-05T20:08:12.669Z,11.70
2022-10-05T20:10:39.734Z,12.40
2022-10-05T20:13:08.932Z,13.43
2022-10-05T20:15:55.545Z,13.40
2022-10-05T20:19:02.851Z,13.18
2022-10-05T20:21:36.568Z,12.85
2022-10-05T20:24:14.606Z,12.95
2022-10-05T20:27:06.947Z,13.95
2022-10-05T20:29:38.987Z,12.52
2022-10-05T20:32:14.387Z,12.65
2022-10-05T20:34:43.877Z,10.90
2022-10-05T20:37:13.470Z,13.73
2022-10-05T20:39:42.170Z,12.02
2022-10-05T20:42:10.569Z,13.20
2022-10-05T20:44:38.437Z,14.77
2022-10-05T20:47:10.107Z,13.52
2022-10-05T20:49:39.011Z,12.00
2022-10-05T20:52:10.097Z,11.70
2022-10-05T20:54:38.606Z,12.43
2022-10-05T20:57:06.783Z,12.60
2022-10-05T20:59:34.844Z,13.63
2022-10-05T21:02:02.116Z,11.85
2022-10-05T21:04:43.122Z,13.40
2022-10-05T21:07:10.605Z,10.27
2022-10-05T21:09:39.540Z,12.02
2022-10-05T21:12:06.858Z,12.25
2022-10-05T21:14:34.678Z,13.52
2022-10-05T21:17:02.398Z,11.90
2022-10-05T21:19:29.936Z,11.32
2022-10-05T21:22:00.011Z,12.80
2022-10-05T21:24:26.983Z,14.38
2022-10-05T21:26:57.046Z,14.93
2022-10-05T21:29:24.136Z,13.38
2022-10-05T21:31:51.462Z,14.38
2022-10-05T21:34:18.586Z,13.98
2022-10-05T21:36:45.607Z,14.10
2022-10-05T21:39:12.582Z,15.00
2022-10-05T21:41:39.944Z,14.57
2022-10-05T21:44:07.248Z,14.32
2022-10-05T21:46:37.461Z,11.82
2022-10-05T21:49:06.752Z,10.77
2022-10-05T21:51:34.459Z,11.75
2022-10-05T21:54:07.574Z,13.52
2022-10-05T21:56:38.206Z,12.82
2022-10-05T21:59:08.058Z,11.15
2022-10-05T22:01:36.249Z,10.82
2022-10-05T22:04:06.702Z,12.30
2022-10-05T22:06:35.582Z,11.63
2022-10-05T22:09:04.025Z,12.82
2022-10-05T22:11:31.898Z,13.05
2022-10-05T22:14:02.992Z,12.73
2022-10-05T22:16:33.096Z,14.88
2022-10-05T22:19:04.685Z,13.30
2022-10-05T22:21:34.318Z,13.63
2022-10-05T22:24:02.963Z,9.63
2022-10-05T22:26:30.555Z,12.50
2022-10-05T22:28:57.963Z,10.88
2022-10-05T22:31:25.156Z,12.55
2022-10-05T22:33:52.493Z,12.15
2022-10-05T22:36:20.033Z,11.40
2022-10-05T22:38:49.764Z,11.95
2022-10-05T22:41:18.593Z,12.38
2022-10-05T22:43:49.011Z,11.85
2022-10-05T22:46:16.198Z,12.13
2022-10-05T22:48:43.473Z,11.88
2022-10-05T22:51:10.742Z,12.65
2022-10-05T22:53:38.209Z,9.98
2022-10-05T22:56:11.443Z,11.50
2022-10-05T22:58:39.311Z,11.63
2022-10-05T23:01:11.868Z,12.23
2022-10-05T23:03:39.296Z,12.80
2022-10-05T23:06:11.936Z,10.75
2022-10-05T23:08:41.971Z,12.75
2022-10-05T23:11:19.469Z,11.70
2022-10-05T23:13:46.559Z,12.73
2022-10-05T23:16:15.266Z,13.77
2022-10-05T23:18:43.436Z,12.52
2022-10-05T23:21:11.656Z,11.60
2022-10-05T23:23:41.428Z,9.95
2022-10-05T23:26:11.264Z,13.18
2022-10-05T23:28:46.759Z,10.05
2022-10-05T23:31:16.766Z,9.98
2022-10-05T23:33:44.416Z,11.45
2022-10-05T23:36:18.123Z,10.50
2022-10-05T23:41:12.956Z,10.70
2022-10-05T23:43:40.492Z,10.77
2022-10-05T23:46:07.926Z,9.55
2022-10-05T23:48:38.258Z,10.60
2022-10-05T23:51:07.286Z,10.20
2022-10-05T23:53:34.688Z,10.30
2022-10-05T23:56:01.732Z,9.70
2022-10-05T23:58:30.210Z,9.18
